Time;durP1;ratioP1;P1;durP2;ratioP2;P2;SDS_P1;SDS_P2;PMS_P1;PMS_P2;Temp;Humidity;BMP_temperature;BMP_pressure;BME280_temperature;BME280_humidity;BME280_pressure;Samples;Min_cycle;Max_cycle;Signal;HPM_P1;HPM_P2
2021/03/30 00:04:20;;;;;;;7.73;4.53;;;;;;;;;;11470188;22;20762;-82
2021/03/30 00:09:22;;;;;;;12.23;4.27;;;;;;;;;;10362238;28;20231;-83
2021/03/30 00:14:24;;;;;;;9.10;4.30;;;;;;;;;;10354350;28;20236;-82
2021/03/30 00:19:26;;;;;;;14.10;4.30;;;;;;;;;;10359720;28;20223;-82
2021/03/30 00:24:28;;;;;;;10.13;4.87;;;;;;;;;;10374141;28;20228;-82
2021/03/30 00:29:42;;;;;;;11.00;4.43;;;;;;;;;;10369198;28;20231;-82
2021/03/30 00:34:45;;;;;;;10.03;4.40;;;;;;;;;;10370042;28;20330;-82
2021/03/30 00:39:46;;;;;;;8.70;4.47;;;;;;;;;;10358929;28;20231;-83
2021/03/30 00:44:49;;;;;;;9.13;4.37;;;;;;;;;;10370690;28;20646;-82
2021/03/30 00:49:52;;;;;;;11.60;4.60;;;;;;;;;;10366745;28;20208;-81
2021/03/30 00:54:54;;;;;;;10.17;4.83;;;;;;;;;;10371913;28;20271;-82
2021/03/30 00:59:56;;;;;;;13.33;4.90;;;;;;;;;;10364264;28;20216;-83
2021/03/30 01:04:59;;;;;;;10.67;4.80;;;;;;;;;;10373879;28;20343;-84
2021/03/30 01:10:04;;;;;;;13.23;4.90;;;;;;;;;;10365258;28;20223;-81
2021/03/30 01:15:12;;;;;;;14.00;4.73;;;;;;;;;;10362377;28;20236;-83
2021/03/30 01:20:38;;;;;;;12.10;5.37;;;;;;;;;;10372541;28;20212;-82
2021/03/30 01:25:44;;;;;;;14.03;5.50;;;;;;;;;;10373891;28;20246;-82
2021/03/30 01:30:47;;;;;;;9.13;5.13;;;;;;;;;;10357765;28;20207;-81
2021/03/30 01:35:52;;;;;;;9.80;5.13;;;;;;;;;;10372221;28;20224;-81
2021/03/30 01:40:54;;;;;;;10.73;5.10;;;;;;;;;;10358256;28;20818;-82
2021/03/30 01:45:58;;;;;;;12.37;5.10;;;;;;;;;;10362463;28;20242;-82
2021/03/30 01:50:59;;;;;;;10.60;5.70;;;;;;;;;;10363067;28;20697;-82
2021/03/30 01:56:02;;;;;;;10.93;5.27;;;;;;;;;;10352798;28;20224;-82
2021/03/30 02:01:05;;;;;;;9.30;5.40;;;;;;;;;;10355340;28;20208;-82
2021/03/30 02:06:07;;;;;;;14.17;5.43;;;;;;;;;;10363719;28;20237;-82
2021/03/30 02:11:09;;;;;;;15.07;5.57;;;;;;;;;;10358716;28;20243;-80
2021/03/30 02:16:14;;;;;;;10.00;5.50;;;;;;;;;;10366469;28;20212;-82
2021/03/30 02:21:18;;;;;;;9.07;5.40;;;;;;;;;;10369355;28;20208;-82
2021/03/30 02:26:20;;;;;;;10.67;5.33;;;;;;;;;;10345905;28;20216;-81
2021/03/30 02:31:26;;;;;;;10.50;5.37;;;;;;;;;;10359456;28;20248;-82
2021/03/30 02:36:28;;;;;;;14.57;6.10;;;;;;;;;;10368228;28;20217;-82
2021/03/30 02:41:30;;;;;;;10.50;6.00;;;;;;;;;;10376914;28;20235;-82
2021/03/30 02:46:33;;;;;;;12.07;6.13;;;;;;;;;;10374654;28;20458;-82
2021/03/30 02:51:36;;;;;;;12.10;6.27;;;;;;;;;;10373195;28;20724;-82
2021/03/30 02:56:38;;;;;;;9.73;5.77;;;;;;;;;;10358932;28;20228;-82
2021/03/30 03:01:42;;;;;;;11.27;6.30;;;;;;;;;;10375838;28;20307;-83
2021/03/30 03:06:45;;;;;;;12.07;6.60;;;;;;;;;;10355777;28;20359;-82
2021/03/30 03:11:47;;;;;;;11.60;6.60;;;;;;;;;;10376825;28;20247;-81
2021/03/30 03:16:51;;;;;;;11.93;6.03;;;;;;;;;;10377461;28;20685;-82
2021/03/30 03:21:53;;;;;;;15.13;6.53;;;;;;;;;;10368821;28;20240;-81
2021/03/30 03:26:56;;;;;;;12.40;6.40;;;;;;;;;;10356209;28;20569;-81
2021/03/30 03:31:58;;;;;;;8.20;6.03;;;;;;;;;;10352078;28;20251;-83
2021/03/30 03:37:01;;;;;;;13.50;6.87;;;;;;;;;;10365479;28;20220;-83
2021/03/30 03:42:02;;;;;;;10.07;6.53;;;;;;;;;;10357481;28;20221;-81
2021/03/30 03:47:06;;;;;;;16.10;7.67;;;;;;;;;;10347831;28;20243;-82
2021/03/30 03:52:10;;;;;;;11.10;6.90;;;;;;;;;;10360487;28;20229;-83
2021/03/30 03:57:14;;;;;;;12.47;7.60;;;;;;;;;;10364080;28;20674;-82
2021/03/30 04:02:20;;;;;;;15.60;8.43;;;;;;;;;;10368418;28;20668;-91
2021/03/30 04:07:23;;;;;;;17.30;9.70;;;;;;;;;;10370301;28;20930;-82
2021/03/30 04:12:28;;;;;;;16.60;9.47;;;;;;;;;;10371525;28;20922;-82
2021/03/30 04:17:31;;;;;;;16.00;9.97;;;;;;;;;;10372012;28;20208;-83
2021/03/30 04:22:32;;;;;;;18.63;10.50;;;;;;;;;;10375629;28;20205;-83
2021/03/30 04:27:34;;;;;;;24.47;10.83;;;;;;;;;;10363552;28;20565;-81
2021/03/30 04:32:37;;;;;;;19.23;11.13;;;;;;;;;;10354809;28;20236;-84
2021/03/30 04:37:39;;;;;;;20.70;11.17;;;;;;;;;;10383216;28;20212;-85
2021/03/30 04:42:41;;;;;;;21.20;12.33;;;;;;;;;;10380542;28;20307;-81
2021/03/30 04:47:44;;;;;;;23.97;12.30;;;;;;;;;;10366347;28;20213;-89
2021/03/30 04:52:46;;;;;;;22.63;12.10;;;;;;;;;;10369756;28;20699;-89
2021/03/30 04:57:48;;;;;;;23.20;12.40;;;;;;;;;;10359947;28;20212;-86
2021/03/30 05:02:50;;;;;;;23.30;12.53;;;;;;;;;;10393876;28;20617;-91
2021/03/30 05:07:52;;;;;;;21.63;12.63;;;;;;;;;;10369017;28;20692;-90
2021/03/30 05:12:54;;;;;;;23.20;12.97;;;;;;;;;;10363799;28;20270;-89
2021/03/30 05:17:58;;;;;;;23.23;12.67;;;;;;;;;;10384163;28;20216;-91
2021/03/30 05:23:00;;;;;;;27.03;13.53;;;;;;;;;;10370834;28;20247;-91
2021/03/30 05:28:01;;;;;;;25.53;12.90;;;;;;;;;;10420748;28;20953;-90
2021/03/30 05:33:05;;;;;;;30.43;13.40;;;;;;;;;;10421378;28;20542;-91
2021/03/30 05:38:06;;;;;;;20.80;12.60;;;;;;;;;;10408733;28;20475;-90
2021/03/30 05:43:09;;;;;;;24.90;13.23;;;;;;;;;;10425110;28;20205;-91
2021/03/30 05:48:14;;;;;;;27.10;13.17;;;;;;;;;;10395214;28;20645;-92
2021/03/30 05:53:16;;;;;;;22.73;13.07;;;;;;;;;;10386400;28;20251;-92
2021/03/30 05:58:18;;;;;;;24.00;13.30;;;;;;;;;;10395564;28;20494;-88
2021/03/30 06:03:23;;;;;;;25.17;13.77;;;;;;;;;;10396439;28;20321;-91
2021/03/30 06:08:27;;;;;;;26.73;13.70;;;;;;;;;;10381954;28;20208;-91
2021/03/30 06:13:49;;;;;;;30.37;14.27;;;;;;;;;;10393310;28;20236;-90
2021/03/30 06:19:05;;;;;;;22.70;14.20;;;;;;;;;;10404743;28;20216;-93
2021/03/30 06:24:27;;;;;;;26.60;13.77;;;;;;;;;;10398540;28;20229;-91
2021/03/30 06:29:34;;;;;;;33.70;14.33;;;;;;;;;;10390832;28;20307;-88
2021/03/30 06:34:38;;;;;;;26.60;14.33;;;;;;;;;;10390861;28;21090;-88
2021/03/30 06:39:41;;;;;;;29.77;16.13;;;;;;;;;;10381518;28;20224;-90
2021/03/30 06:44:43;;;;;;;34.23;15.93;;;;;;;;;;10389952;28;20210;-89
2021/03/30 06:49:51;;;;;;;28.57;15.83;;;;;;;;;;10388712;28;20213;-90
2021/03/30 06:54:54;;;;;;;36.43;16.07;;;;;;;;;;10403885;28;20530;-90
2021/03/30 06:59:56;;;;;;;35.10;17.13;;;;;;;;;;10386442;28;20212;-89
2021/03/30 07:04:59;;;;;;;32.03;17.17;;;;;;;;;;10384036;28;20239;-89
2021/03/30 07:10:01;;;;;;;30.20;17.30;;;;;;;;;;10392651;28;20390;-91
2021/03/30 07:15:03;;;;;;;39.33;18.13;;;;;;;;;;10399298;28;20267;-89
2021/03/30 07:20:07;;;;;;;32.90;17.80;;;;;;;;;;10402141;28;20559;-88
2021/03/30 07:25:12;;;;;;;35.00;18.47;;;;;;;;;;10395637;28;20211;-90
2021/03/30 07:30:14;;;;;;;42.73;18.30;;;;;;;;;;10391402;28;20217;-89
2021/03/30 07:35:18;;;;;;;32.83;18.07;;;;;;;;;;10388116;28;20696;-89
2021/03/30 07:40:21;;;;;;;33.47;19.03;;;;;;;;;;10386087;28;20216;-88
2021/03/30 07:45:23;;;;;;;35.30;18.37;;;;;;;;;;10391237;28;20224;-90
2021/03/30 07:50:45;;;;;;;35.40;17.93;;;;;;;;;;10391848;28;20208;-87
2021/03/30 07:55:48;;;;;;;35.43;18.63;;;;;;;;;;10394403;28;20242;-89
2021/03/30 08:00:51;;;;;;;36.67;17.13;;;;;;;;;;10392079;28;20688;-88
2021/03/30 08:06:27;;;;;;;31.30;17.83;;;;;;;;;;10390011;28;20743;-90
2021/03/30 08:11:47;;;;;;;31.60;18.40;;;;;;;;;;10220481;28;20502;-89
2021/03/30 08:16:50;;;;;;;32.87;17.57;;;;;;;;;;10356607;28;20223;-91
2021/03/30 08:21:53;;;;;;;33.43;18.10;;;;;;;;;;10385628;28;20297;-87
2021/03/30 08:26:56;;;;;;;39.87;18.30;;;;;;;;;;10368496;28;20752;-89
2021/03/30 08:31:58;;;;;;;29.40;17.40;;;;;;;;;;10380779;28;20243;-88
2021/03/30 08:37:10;;;;;;;35.20;17.13;;;;;;;;;;10386536;28;20219;-90
2021/03/30 08:42:17;;;;;;;30.07;17.20;;;;;;;;;;10386561;28;20220;-89
2021/03/30 08:47:29;;;;;;;33.13;16.07;;;;;;;;;;10392665;28;20217;-90
2021/03/30 08:52:31;;;;;;;36.07;17.87;;;;;;;;;;10382391;28;20248;-90
2021/03/30 08:57:35;;;;;;;30.00;16.27;;;;;;;;;;10393490;28;20223;-89
2021/03/30 09:02:38;;;;;;;33.30;17.33;;;;;;;;;;10382081;28;20220;-89
2021/03/30 09:07:43;;;;;;;31.10;16.30;;;;;;;;;;10384436;28;20224;-89
2021/03/30 09:12:46;;;;;;;31.53;17.17;;;;;;;;;;10369904;28;20674;-89
2021/03/30 09:17:58;;;;;;;32.33;16.63;;;;;;;;;;10394163;28;20630;-87
2021/03/30 09:23:03;;;;;;;27.40;15.13;;;;;;;;;;10374369;28;20216;-88
2021/03/30 09:28:12;;;;;;;25.13;13.73;;;;;;;;;;10372012;28;20209;-89
2021/03/30 09:33:15;;;;;;;21.43;12.00;;;;;;;;;;10379075;28;20240;-88
2021/03/30 09:38:19;;;;;;;21.20;11.73;;;;;;;;;;10387615;28;20220;-90
2021/03/30 09:43:22;;;;;;;20.23;11.60;;;;;;;;;;10386078;28;20211;-89
2021/03/30 09:48:25;;;;;;;18.10;10.80;;;;;;;;;;10382838;28;20229;-88
2021/03/30 09:53:38;;;;;;;17.63;9.83;;;;;;;;;;10392153;28;20244;-91
2021/03/30 09:58:41;;;;;;;18.03;9.13;;;;;;;;;;10395603;28;20307;-88
2021/03/30 10:03:43;;;;;;;17.87;9.77;;;;;;;;;;10378713;28;20300;-89
2021/03/30 10:08:46;;;;;;;18.40;10.20;;;;;;;;;;10402977;28;20279;-89
2021/03/30 10:13:49;;;;;;;20.30;10.87;;;;;;;;;;10379838;28;20248;-91
2021/03/30 10:18:51;;;;;;;20.53;9.40;;;;;;;;;;10380864;28;20212;-88
2021/03/30 10:23:53;;;;;;;15.47;8.83;;;;;;;;;;10389138;28;20239;-87
2021/03/30 10:28:59;;;;;;;18.57;10.20;;;;;;;;;;10372748;28;20638;-88
2021/03/30 10:34:20;;;;;;;14.60;8.10;;;;;;;;;;10385598;28;20238;-88
2021/03/30 10:39:27;;;;;;;17.53;9.53;;;;;;;;;;10395769;28;20224;-89
2021/03/30 10:44:34;;;;;;;20.10;10.50;;;;;;;;;;10393353;28;20220;-88
2021/03/30 10:49:36;;;;;;;15.37;8.70;;;;;;;;;;10388240;28;20629;-89
2021/03/30 10:54:38;;;;;;;17.77;8.27;;;;;;;;;;10389870;28;20248;-88
2021/03/30 10:59:41;;;;;;;13.97;8.20;;;;;;;;;;10386876;28;20311;-90
2021/03/30 11:04:43;;;;;;;14.67;7.67;;;;;;;;;;10378557;28;20270;-88
2021/03/30 11:09:45;;;;;;;13.97;8.00;;;;;;;;;;10387309;28;20597;-89
2021/03/30 11:14:48;;;;;;;13.80;6.93;;;;;;;;;;10384327;28;20232;-89
2021/03/30 11:19:50;;;;;;;15.33;7.33;;;;;;;;;;10373021;28;20212;-89
2021/03/30 11:24:56;;;;;;;13.60;7.43;;;;;;;;;;10375422;28;20215;-89
2021/03/30 11:30:06;;;;;;;15.63;7.33;;;;;;;;;;10376843;28;20231;-89
2021/03/30 11:35:18;;;;;;;12.37;5.80;;;;;;;;;;10386629;28;20251;-88
2021/03/30 11:40:20;;;;;;;9.30;5.70;;;;;;;;;;10387113;28;20212;-88
2021/03/30 11:45:23;;;;;;;11.43;6.07;;;;;;;;;;10396527;28;20220;-88
2021/03/30 11:50:25;;;;;;;11.73;6.20;;;;;;;;;;10426322;28;20223;-89
2021/03/30 11:55:27;;;;;;;11.80;6.40;;;;;;;;;;10431478;28;20228;-88
2021/03/30 19:38:53;;;;;;;33.23;15.17;;;;;;;;;;10410006;28;20673;-92
2021/03/30 19:43:56;;;;;;;34.73;15.87;;;;;;;;;;10384373;28;20515;-92
2021/03/30 19:48:58;;;;;;;36.07;17.77;;;;;;;;;;10368900;28;20251;-92
2021/03/30 19:54:03;;;;;;;33.70;15.90;;;;;;;;;;10379774;28;20241;-93
2021/03/30 19:59:05;;;;;;;32.83;15.93;;;;;;;;;;10371224;28;20639;-95
2021/03/30 20:04:07;;;;;;;37.80;15.67;;;;;;;;;;10379077;28;20327;-92
2021/03/30 20:09:10;;;;;;;33.90;16.50;;;;;;;;;;10379430;28;20362;-92
2021/03/30 20:14:12;;;;;;;34.47;16.17;;;;;;;;;;10381828;28;20242;-91
2021/03/30 20:19:14;;;;;;;33.63;15.33;;;;;;;;;;10373155;28;20307;-92
2021/03/30 20:24:18;;;;;;;31.33;15.37;;;;;;;;;;10378671;28;20212;-93
2021/03/30 20:29:20;;;;;;;38.40;15.80;;;;;;;;;;10383192;28;20218;-95
2021/03/30 20:34:23;;;;;;;36.77;16.27;;;;;;;;;;10380236;28;20366;-94
2021/03/30 20:39:28;;;;;;;30.13;14.70;;;;;;;;;;10384239;28;20216;-91
2021/03/30 20:44:30;;;;;;;31.27;15.37;;;;;;;;;;10378207;28;20658;-93
2021/03/30 20:49:32;;;;;;;33.23;15.63;;;;;;;;;;10375634;28;20227;-90
2021/03/30 20:54:35;;;;;;;36.00;16.00;;;;;;;;;;10375022;28;20286;-91
2021/03/30 20:59:37;;;;;;;33.07;15.87;;;;;;;;;;10373078;28;20248;-93
2021/03/30 21:04:40;;;;;;;41.07;16.90;;;;;;;;;;10380787;28;20239;-93
2021/03/30 21:09:43;;;;;;;38.07;18.30;;;;;;;;;;10376513;28;20216;-92
2021/03/30 21:14:45;;;;;;;36.30;18.37;;;;;;;;;;10372985;28;21809;-94
2021/03/30 21:19:48;;;;;;;35.73;16.50;;;;;;;;;;10391338;28;20243;-94
2021/03/30 21:24:51;;;;;;;32.67;15.47;;;;;;;;;;10384434;28;20224;-93
2021/03/30 21:29:53;;;;;;;34.60;15.53;;;;;;;;;;10375842;28;20217;-92
2021/03/30 21:34:55;;;;;;;33.80;14.73;;;;;;;;;;10376197;28;20247;-93
2021/03/30 21:39:58;;;;;;;35.47;15.70;;;;;;;;;;10390614;28;20359;-92
2021/03/30 21:45:06;;;;;;;34.80;15.63;;;;;;;;;;10376305;28;20223;-94
2021/03/30 21:50:09;;;;;;;28.70;14.97;;;;;;;;;;10395633;28;20219;-93
2021/03/30 21:55:13;;;;;;;47.23;23.23;;;;;;;;;;10392768;28;20259;-94
2021/03/30 22:00:16;;;;;;;38.17;17.13;;;;;;;;;;10391303;28;20209;-94
2021/03/30 22:05:19;;;;;;;31.63;15.63;;;;;;;;;;10387679;28;20254;-92
2021/03/30 22:10:25;;;;;;;29.23;14.77;;;;;;;;;;10385994;28;20500;-93
2021/03/30 22:15:28;;;;;;;35.97;16.20;;;;;;;;;;10381884;28;20260;-93
2021/03/30 22:20:32;;;;;;;32.30;15.37;;;;;;;;;;10380200;28;20530;-93
2021/03/30 22:25:35;;;;;;;30.33;14.77;;;;;;;;;;10377003;28;20521;-95
2021/03/30 22:30:38;;;;;;;33.67;15.23;;;;;;;;;;10369653;28;20220;-94
2021/03/30 22:35:40;;;;;;;30.30;15.57;;;;;;;;;;10366032;28;20232;-93
2021/03/30 22:40:45;;;;;;;30.63;15.03;;;;;;;;;;10374398;28;20366;-93
2021/03/30 22:45:47;;;;;;;32.30;15.70;;;;;;;;;;10375703;28;20209;-93
2021/03/30 22:50:49;;;;;;;30.27;15.30;;;;;;;;;;10385210;28;20593;-92
2021/03/30 22:55:52;;;;;;;34.17;15.27;;;;;;;;;;10381010;28;20670;-93
2021/03/30 23:00:54;;;;;;;32.57;15.97;;;;;;;;;;10383146;28;20224;-94
2021/03/30 23:05:56;;;;;;;30.30;16.10;;;;;;;;;;10384999;28;20239;-92
2021/03/30 23:11:03;;;;;;;29.23;15.60;;;;;;;;;;10378545;28;20703;-93
2021/03/30 23:16:06;;;;;;;33.27;15.90;;;;;;;;;;10380276;28;20262;-93
2021/03/30 23:21:08;;;;;;;29.43;15.00;;;;;;;;;;10379550;28;20216;-92
2021/03/30 23:26:11;;;;;;;27.23;14.90;;;;;;;;;;10377557;28;20599;-93
2021/03/30 23:31:13;;;;;;;31.03;15.17;;;;;;;;;;10377253;28;20758;-93
2021/03/30 23:36:15;;;;;;;32.43;14.90;;;;;;;;;;10379115;28;20869;-93
2021/03/30 23:41:18;;;;;;;26.87;14.67;;;;;;;;;;10374730;28;20220;-91
2021/03/30 23:46:20;;;;;;;27.97;14.87;;;;;;;;;;10375240;28;20319;-93
2021/03/30 23:51:22;;;;;;;38.00;15.30;;;;;;;;;;10376723;28;20542;-91
2021/03/30 23:56:25;;;;;;;29.13;14.63;;;;;;;;;;10370828;28;20240;-92
